createdAt,value
2024-05-09T00:00:35.510Z,82.32
2024-05-09T00:03:07.310Z,82.32
2024-05-09T00:05:34.378Z,82.12
2024-05-09T00:08:01.351Z,82.27
2024-05-09T00:10:35.384Z,82.19
2024-05-09T00:13:04.696Z,82.43
2024-05-09T00:15:31.551Z,82.15
2024-05-09T00:17:58.331Z,82.67
2024-05-09T00:20:33.089Z,82.89
2024-05-09T00:23:06.788Z,82.51
2024-05-09T00:25:33.616Z,83.08
2024-05-09T00:28:00.162Z,82.96
2024-05-09T00:30:33.584Z,82.39
2024-05-09T00:33:03.643Z,82.33
2024-05-09T00:35:30.886Z,82.76
2024-05-09T00:37:57.561Z,83.12
2024-05-09T00:40:35.060Z,82.76
2024-05-09T00:43:06.572Z,82.95
2024-05-09T00:45:34.332Z,82.83
2024-05-09T00:48:07.115Z,82.82
2024-05-09T00:50:38.020Z,82.71
2024-05-09T00:53:07.748Z,83.08
2024-05-09T00:55:36.481Z,82.80
2024-05-09T00:58:05.154Z,82.98
2024-05-09T01:00:38.405Z,83.06
2024-05-09T01:03:07.862Z,82.93
2024-05-09T01:05:35.391Z,82.79
2024-05-09T01:08:02.716Z,82.70
2024-05-09T01:10:34.339Z,82.62
2024-05-09T01:13:04.064Z,82.81
2024-05-09T01:15:30.839Z,83.23
2024-05-09T01:17:58.260Z,83.34
2024-05-09T01:20:36.532Z,83.14
2024-05-09T01:23:09.737Z,83.23
2024-05-09T01:25:36.804Z,83.32
2024-05-09T01:28:03.440Z,82.87
2024-05-09T01:30:34.818Z,83.02
2024-05-09T01:33:04.471Z,82.81
2024-05-09T01:35:31.508Z,83.34
2024-05-09T01:37:58.101Z,83.01
2024-05-09T01:40:33.578Z,83.06
2024-05-09T01:43:04.697Z,83.12
2024-05-09T01:45:34.164Z,83.40
2024-05-09T01:48:01.136Z,83.48
2024-05-09T01:50:37.543Z,83.26
2024-05-09T01:53:09.039Z,83.24
2024-05-09T01:55:35.749Z,83.25
2024-05-09T01:58:02.294Z,82.91
2024-05-09T02:00:37.339Z,83.10
2024-05-09T02:03:09.684Z,83.12
2024-05-09T02:05:36.851Z,82.86
2024-05-09T02:08:04.368Z,82.81
2024-05-09T02:10:32.976Z,82.80
2024-05-09T02:13:00.030Z,82.77
2024-05-09T02:15:26.591Z,82.73
2024-05-09T02:17:53.415Z,83.09
2024-05-09T02:20:30.041Z,83.23
2024-05-09T02:23:03.627Z,83.00
2024-05-09T02:25:30.520Z,82.96
2024-05-09T02:27:57.195Z,83.00
2024-05-09T02:30:31.010Z,82.93
2024-05-09T02:33:05.832Z,83.07
2024-05-09T02:35:32.552Z,83.20
2024-05-09T02:37:59.191Z,83.22
2024-05-09T02:40:33.634Z,82.99
2024-05-09T02:43:04.196Z,82.86
2024-05-09T02:45:30.733Z,82.82
2024-05-09T02:47:57.670Z,83.15
2024-05-09T02:50:33.114Z,83.07
2024-05-09T02:53:04.454Z,82.73
2024-05-09T02:55:31.243Z,83.28
2024-05-09T02:57:57.859Z,83.25
2024-05-09T03:00:33.654Z,82.78
2024-05-09T03:03:05.675Z,82.83
2024-05-09T03:05:32.564Z,83.07
2024-05-09T03:07:59.159Z,82.93
2024-05-09T03:10:28.820Z,82.72
2024-05-09T03:13:01.709Z,83.00
2024-05-09T03:15:32.147Z,82.98
2024-05-09T03:18:00.091Z,83.20
2024-05-09T03:20:32.991Z,83.31
2024-05-09T03:23:02.208Z,83.15
2024-05-09T03:25:28.836Z,83.36
2024-05-09T03:27:55.371Z,83.15
2024-05-09T03:30:31.077Z,83.44
2024-05-09T03:33:19.987Z,83.05
2024-05-09T03:35:48.054Z,83.25
2024-05-09T03:38:15.093Z,83.48
2024-05-09T03:40:46.387Z,83.27
2024-05-09T03:43:13.923Z,83.48
2024-05-09T03:45:43.918Z,83.16
2024-05-09T03:48:10.758Z,82.94
2024-05-09T03:50:38.031Z,83.39
2024-05-09T03:53:05.378Z,83.16
2024-05-09T03:55:32.115Z,83.04
2024-05-09T03:57:58.838Z,83.57
2024-05-09T04:00:31.787Z,83.49
2024-05-09T04:03:06.237Z,83.14
2024-05-09T04:05:34.979Z,83.20
2024-05-09T04:08:01.685Z,83.27
2024-05-09T04:10:33.230Z,83.29
2024-05-09T04:13:04.560Z,82.93
2024-05-09T04:15:31.588Z,83.17
2024-05-09T04:17:58.461Z,83.13
2024-05-09T04:20:35.855Z,83.49
2024-05-09T04:23:06.967Z,83.15
2024-05-09T04:25:34.223Z,83.22
2024-05-09T04:28:00.825Z,83.32
2024-05-09T04:30:36.362Z,83.43
2024-05-09T04:33:07.976Z,83.54
2024-05-09T04:35:36.077Z,83.28
2024-05-09T04:38:02.811Z,83.08
2024-05-09T04:40:34.099Z,83.24
2024-05-09T04:43:03.718Z,83.30
2024-05-09T04:45:30.433Z,83.22
2024-05-09T04:47:57.241Z,82.82
2024-05-09T04:50:33.225Z,82.86
2024-05-09T04:53:04.045Z,83.04
2024-05-09T04:55:30.719Z,83.33
2024-05-09T04:57:57.245Z,83.36
2024-05-09T05:00:32.462Z,83.05
2024-05-09T05:03:06.894Z,83.62
2024-05-09T05:05:34.871Z,83.88
2024-05-09T05:08:01.560Z,83.75
2024-05-09T05:10:33.992Z,84.02
2024-05-09T05:13:25.101Z,84.02
2024-05-09T05:15:55.768Z,84.12
2024-05-09T05:18:23.836Z,84.34
2024-05-09T05:20:50.406Z,84.32
2024-05-09T05:23:20.167Z,84.70
2024-05-09T05:25:48.754Z,84.49
2024-05-09T05:28:16.670Z,85.06
2024-05-09T05:30:43.461Z,84.79
2024-05-09T05:33:12.064Z,85.12
2024-05-09T05:35:39.559Z,85.32
2024-05-09T05:38:07.500Z,85.44
2024-05-09T05:40:37.255Z,84.77
2024-05-09T05:43:10.303Z,85.56
2024-05-09T05:45:37.409Z,85.05
2024-05-09T05:48:05.703Z,84.89
2024-05-09T05:50:36.372Z,83.98
2024-05-09T05:53:08.820Z,84.13
2024-05-09T05:55:36.689Z,84.28
2024-05-09T05:58:03.412Z,83.88
2024-05-09T06:00:37.504Z,84.13
2024-05-09T06:03:06.400Z,83.70
2024-05-09T06:05:33.574Z,83.92
2024-05-09T06:08:00.419Z,83.54
2024-05-09T06:10:36.992Z,81.73
2024-05-09T06:13:06.310Z,80.16
2024-05-09T06:15:32.828Z,79.51
2024-05-09T06:17:59.572Z,79.88
2024-05-09T06:20:34.819Z,80.14
2024-05-09T06:23:06.224Z,80.71
2024-05-09T06:25:33.690Z,81.19
2024-05-09T06:28:01.023Z,81.60
2024-05-09T06:30:36.651Z,81.72
2024-05-09T06:33:07.303Z,82.48
2024-05-09T06:35:34.411Z,82.33
2024-05-09T06:38:01.667Z,81.91
2024-05-09T06:40:36.442Z,81.36
2024-05-09T06:43:10.450Z,81.71
2024-05-09T06:45:37.166Z,81.53
2024-05-09T06:48:04.125Z,80.98
2024-05-09T06:50:36.875Z,80.36
2024-05-09T06:53:04.903Z,79.01
2024-05-09T06:55:31.515Z,78.33
2024-05-09T06:57:58.000Z,77.09
2024-05-09T07:00:30.882Z,76.36
2024-05-09T07:03:14.982Z,76.42
2024-05-09T07:05:43.881Z,76.11
2024-05-09T07:08:10.553Z,75.02
2024-05-09T07:10:37.577Z,74.58
2024-05-09T07:13:11.965Z,74.05
2024-05-09T07:15:39.402Z,73.32
2024-05-09T07:18:13.854Z,73.05
2024-05-09T07:20:41.254Z,72.47
2024-05-09T07:23:11.436Z,73.15
2024-05-09T07:25:39.383Z,70.86
2024-05-09T07:28:09.797Z,71.08
2024-05-09T07:30:36.274Z,71.00
2024-05-09T07:33:03.673Z,70.75
2024-05-09T07:35:31.187Z,70.09
2024-05-09T07:37:58.123Z,70.23
2024-05-09T07:40:32.791Z,69.32
2024-05-09T07:43:12.979Z,68.94
2024-05-09T07:45:49.602Z,68.13
2024-05-09T07:53:38.585Z,66.50
2024-05-09T07:56:07.362Z,65.21
2024-05-09T07:58:34.355Z,66.26
2024-05-09T08:01:02.632Z,64.96
2024-05-09T08:03:29.591Z,63.93
2024-05-09T08:05:56.228Z,64.49
2024-05-09T08:08:23.122Z,63.49
2024-05-09T08:10:50.648Z,64.37
2024-05-09T08:13:17.603Z,63.72
2024-05-09T08:15:44.240Z,63.24
2024-05-09T08:18:11.620Z,62.98
2024-05-09T08:20:38.996Z,61.10
2024-05-09T08:23:05.942Z,61.32
2024-05-09T08:25:32.363Z,61.69
2024-05-09T08:27:58.996Z,58.93
2024-05-09T08:30:32.791Z,59.10
2024-05-09T08:33:04.190Z,58.85
2024-05-09T08:35:30.843Z,59.26
2024-05-09T08:37:57.529Z,58.68
2024-05-09T08:40:31.055Z,58.61
2024-05-09T08:43:05.268Z,58.72
2024-05-09T08:45:33.478Z,59.00
2024-05-09T08:48:05.766Z,59.25
2024-05-09T08:50:38.808Z,57.59
2024-05-09T08:53:07.156Z,56.51
2024-05-09T08:55:33.924Z,57.27
2024-05-09T08:58:03.352Z,57.02
2024-05-09T09:00:36.812Z,57.60
2024-05-09T09:03:06.746Z,56.54
2024-05-09T09:05:37.883Z,56.38
2024-05-09T09:08:07.436Z,56.40
2024-05-09T09:10:34.652Z,56.46
2024-05-09T09:13:04.205Z,57.29
2024-05-09T09:15:31.272Z,56.54
2024-05-09T09:17:59.190Z,57.00
2024-05-09T09:20:34.133Z,55.78
2024-05-09T09:23:03.400Z,55.77
2024-05-09T09:25:30.053Z,53.79
2024-05-09T09:27:58.640Z,55.01
2024-05-09T09:30:35.030Z,56.19
2024-05-09T09:33:04.468Z,55.78
2024-05-09T09:35:31.185Z,54.43
2024-05-09T09:38:01.985Z,54.60
2024-05-09T09:40:37.107Z,55.69
2024-05-09T09:43:20.106Z,55.46
2024-05-09T09:45:53.442Z,55.41
2024-05-09T09:48:22.009Z,55.61
2024-05-09T09:50:51.497Z,54.69
2024-05-09T09:53:19.188Z,56.20
2024-05-09T09:55:46.932Z,56.10
2024-05-09T09:58:16.251Z,56.96
2024-05-09T10:00:43.170Z,57.25
2024-05-09T10:03:09.932Z,56.59
2024-05-09T10:05:37.438Z,56.45
2024-05-09T10:08:06.875Z,57.69
2024-05-09T10:10:35.814Z,57.71
2024-05-09T10:13:05.716Z,57.92
2024-05-09T10:15:46.376Z,56.56
2024-05-09T10:18:13.354Z,57.05
2024-05-09T10:20:44.295Z,56.11
2024-05-09T10:23:37.093Z,55.97
2024-05-09T10:26:04.944Z,55.60
2024-05-09T10:28:35.008Z,55.38
2024-05-09T10:31:09.441Z,54.17
2024-05-09T10:33:37.614Z,55.00
2024-05-09T10:36:10.683Z,53.73
2024-05-09T10:38:37.178Z,54.06
2024-05-09T10:41:04.753Z,53.65
2024-05-09T10:43:31.386Z,52.70
2024-05-09T10:45:57.949Z,52.80
2024-05-09T10:48:24.844Z,52.49
2024-05-09T10:50:51.631Z,51.39
2024-05-09T10:53:19.183Z,51.49
2024-05-09T10:55:58.915Z,52.41
2024-05-09T10:58:26.157Z,50.30
2024-05-09T11:00:55.776Z,50.65
2024-05-09T11:03:26.094Z,50.40
2024-05-09T11:05:53.321Z,50.94
2024-05-09T11:08:24.415Z,50.89
2024-05-09T11:10:52.515Z,50.84
2024-05-09T11:13:32.768Z,51.38
2024-05-09T11:16:00.587Z,51.88
2024-05-09T11:18:30.875Z,51.90
2024-05-09T11:21:00.484Z,50.13
2024-05-09T11:23:30.033Z,50.07
2024-05-09T11:25:58.319Z,50.62
2024-05-09T11:28:26.852Z,50.24
2024-05-09T11:31:06.475Z,50.94
2024-05-09T11:33:36.903Z,50.38
2024-05-09T11:36:04.206Z,50.69
2024-05-09T11:38:31.213Z,50.09
2024-05-09T11:40:57.733Z,50.88
2024-05-09T11:43:24.421Z,51.93
2024-05-09T11:45:51.191Z,52.53
2024-05-09T11:48:17.824Z,51.83
2024-05-09T11:50:44.442Z,50.93
2024-05-09T11:53:12.310Z,51.58
2024-05-09T11:55:38.810Z,53.21
2024-05-09T11:58:05.859Z,53.33
2024-05-09T12:00:36.907Z,52.67
2024-05-09T12:03:05.659Z,52.36
2024-05-09T12:05:34.011Z,52.04
2024-05-09T12:08:01.407Z,51.79
2024-05-09T12:10:33.362Z,52.40
2024-05-09T12:13:03.149Z,52.53
2024-05-09T12:15:30.795Z,53.00
2024-05-09T12:17:59.008Z,51.74
2024-05-09T12:20:35.416Z,52.64
2024-05-09T12:23:05.420Z,52.50
2024-05-09T12:25:32.072Z,53.28
2024-05-09T12:27:58.727Z,53.66
2024-05-09T12:30:34.441Z,52.77
2024-05-09T12:33:05.001Z,53.71
2024-05-09T12:35:31.835Z,53.96
2024-05-09T12:37:58.456Z,53.52
2024-05-09T12:40:34.233Z,54.35
2024-05-09T12:43:04.107Z,54.17
2024-05-09T12:45:30.806Z,53.58
2024-05-09T12:47:57.493Z,53.76
2024-05-09T12:50:31.079Z,54.17
2024-05-09T12:52:59.558Z,53.37
2024-05-09T12:55:26.937Z,54.89
2024-05-09T12:57:53.824Z,53.11
2024-05-09T13:00:27.417Z,53.37
2024-05-09T13:02:58.276Z,53.06
2024-05-09T13:05:25.019Z,53.52
2024-05-09T13:07:51.753Z,53.03
2024-05-09T13:10:28.661Z,54.15
2024-05-09T13:12:59.217Z,53.99
2024-05-09T13:15:25.885Z,52.87
2024-05-09T13:17:52.623Z,53.51
2024-05-09T13:20:26.394Z,53.35
2024-05-09T13:23:01.627Z,53.27
2024-05-09T13:25:28.205Z,52.76
2024-05-09T13:27:55.307Z,52.81
2024-05-09T13:30:29.487Z,53.05
2024-05-09T13:33:05.875Z,53.96
2024-05-09T13:35:34.314Z,53.93
2024-05-09T13:38:02.012Z,53.56
2024-05-09T13:40:33.631Z,54.15
2024-05-09T13:43:02.889Z,53.79
2024-05-09T13:45:29.604Z,53.38
2024-05-09T13:47:56.617Z,53.87
2024-05-09T13:50:31.334Z,53.93
2024-05-09T13:53:02.141Z,54.28
2024-05-09T13:55:28.858Z,54.16
2024-05-09T13:57:55.811Z,54.95
2024-05-09T14:00:32.260Z,55.75
2024-05-09T14:03:09.460Z,54.46
2024-05-09T14:05:36.359Z,55.30
2024-05-09T14:08:06.243Z,54.42
2024-05-09T14:10:33.034Z,55.43
2024-05-09T14:13:00.041Z,55.68
2024-05-09T14:15:26.867Z,55.01
2024-05-09T14:17:54.223Z,55.48
2024-05-09T14:20:30.291Z,55.86
2024-05-09T14:23:02.123Z,55.48
2024-05-09T14:25:30.024Z,55.18
2024-05-09T14:27:59.962Z,54.64
2024-05-09T14:30:34.769Z,55.22
2024-05-09T14:33:05.077Z,54.82
2024-05-09T14:35:32.057Z,54.67
2024-05-09T14:37:58.919Z,54.85
2024-05-09T14:40:36.922Z,55.74
2024-05-09T14:43:08.749Z,55.07
2024-05-09T14:45:35.639Z,55.63
2024-05-09T14:48:02.806Z,55.72
2024-05-09T14:50:35.827Z,54.64
2024-05-09T14:53:06.410Z,54.43
2024-05-09T14:55:37.285Z,54.60
2024-05-09T14:58:09.175Z,54.48
2024-05-09T15:00:41.514Z,53.88
2024-05-09T15:03:11.368Z,52.71
2024-05-09T15:05:38.016Z,54.00
2024-05-09T15:08:08.474Z,52.87
2024-05-09T15:10:36.721Z,52.85
2024-05-09T15:13:05.211Z,53.47
2024-05-09T15:15:32.362Z,54.36
2024-05-09T15:17:59.615Z,55.68
2024-05-09T15:20:33.473Z,55.67
2024-05-09T15:23:03.246Z,54.89
2024-05-09T15:25:30.187Z,55.19
2024-05-09T15:27:57.049Z,55.84
2024-05-09T15:30:31.290Z,55.87
2024-05-09T15:33:00.906Z,56.91
2024-05-09T15:35:27.878Z,57.63
2024-05-09T15:37:54.915Z,58.34
2024-05-09T15:40:30.921Z,58.59
2024-05-09T15:43:05.089Z,57.99
2024-05-09T15:45:32.040Z,56.94
2024-05-09T15:47:59.100Z,58.31
2024-05-09T15:50:35.550Z,58.66
2024-05-09T15:53:06.683Z,59.13
2024-05-09T15:55:34.318Z,57.25
2024-05-09T15:58:02.319Z,58.01
2024-05-09T16:00:37.184Z,57.76
2024-05-09T16:03:07.709Z,57.51
2024-05-09T16:05:34.652Z,57.54
2024-05-09T16:08:01.454Z,57.61
2024-05-09T16:10:32.690Z,57.15
2024-05-09T16:13:00.962Z,57.56
2024-05-09T16:15:27.639Z,57.48
2024-05-09T16:17:54.331Z,58.09
2024-05-09T16:20:33.756Z,58.00
2024-05-09T16:23:05.832Z,57.87
2024-05-09T16:25:32.684Z,57.83
2024-05-09T16:27:59.584Z,58.31
2024-05-09T16:30:33.502Z,58.27
2024-05-09T16:33:03.039Z,58.13
2024-05-09T16:35:30.118Z,58.86
2024-05-09T16:37:57.252Z,59.21
2024-05-09T16:40:34.295Z,58.25
2024-05-09T16:43:06.262Z,58.47
2024-05-09T16:45:33.343Z,58.11
2024-05-09T16:48:00.711Z,58.07
2024-05-09T16:50:32.771Z,58.52
2024-05-09T16:53:01.796Z,57.99
2024-05-09T16:55:28.505Z,58.31
2024-05-09T16:57:55.974Z,58.63
2024-05-09T17:00:34.792Z,58.80
2024-05-09T17:03:07.781Z,58.85
2024-05-09T17:05:35.393Z,59.33
2024-05-09T17:08:02.602Z,59.65
2024-05-09T17:10:32.694Z,59.45
2024-05-09T17:13:01.862Z,60.39
2024-05-09T17:15:28.650Z,60.76
2024-05-09T17:17:55.898Z,60.63
2024-05-09T17:20:29.682Z,60.33
2024-05-09T17:23:01.638Z,60.20
2024-05-09T17:25:28.346Z,60.03
2024-05-09T17:27:55.233Z,59.71
2024-05-09T17:30:28.922Z,59.45
2024-05-09T17:33:01.661Z,60.55
2024-05-09T17:35:28.480Z,59.74
2024-05-09T17:37:55.120Z,60.26
2024-05-09T17:40:30.719Z,60.56
2024-05-09T17:43:01.061Z,59.74
2024-05-09T17:45:27.621Z,61.09
2024-05-09T17:47:54.397Z,60.07
2024-05-09T17:50:27.244Z,60.25
2024-05-09T17:53:00.398Z,60.80
2024-05-09T17:55:27.049Z,60.43
2024-05-09T17:57:53.698Z,61.81
2024-05-09T18:00:29.015Z,61.63
2024-05-09T18:03:03.723Z,61.18
2024-05-09T18:05:30.417Z,61.58
2024-05-09T18:07:57.341Z,62.16
2024-05-09T18:10:29.982Z,62.19
2024-05-09T18:13:02.358Z,61.97
2024-05-09T18:15:29.007Z,62.00
2024-05-09T18:17:55.710Z,62.20
2024-05-09T18:20:32.618Z,63.44
2024-05-09T18:23:07.251Z,62.17
2024-05-09T18:25:33.773Z,63.12
2024-05-09T18:28:02.413Z,63.93
2024-05-09T18:30:34.440Z,63.92
2024-05-09T18:33:03.111Z,64.43
2024-05-09T18:35:29.743Z,65.06
2024-05-09T18:37:56.325Z,65.15
2024-05-09T18:40:31.257Z,66.53
2024-05-09T18:43:01.914Z,65.70
2024-05-09T18:45:29.039Z,67.25
2024-05-09T18:47:56.758Z,67.18
2024-05-09T18:50:32.000Z,67.44
2024-05-09T18:53:03.431Z,67.98
2024-05-09T18:55:29.948Z,67.82
2024-05-09T18:57:56.807Z,68.37
2024-05-09T19:00:33.210Z,68.72
2024-05-09T19:03:05.739Z,68.60
2024-05-09T19:05:35.320Z,69.62
2024-05-09T19:08:02.786Z,69.65
2024-05-09T19:10:34.229Z,69.19
2024-05-09T19:13:06.540Z,69.29
2024-05-09T19:15:37.053Z,70.47
2024-05-09T19:18:04.073Z,69.98
2024-05-09T19:20:34.504Z,70.11
2024-05-09T19:23:02.658Z,70.72
2024-05-09T19:25:29.306Z,70.22
2024-05-09T19:27:55.996Z,70.99
2024-05-09T19:30:30.371Z,70.61
2024-05-09T19:33:05.156Z,70.16
2024-05-09T19:35:32.292Z,70.22
2024-05-09T19:37:58.823Z,69.87
2024-05-09T19:40:31.127Z,71.07
2024-05-09T19:43:00.018Z,71.13
2024-05-09T19:45:26.586Z,71.42
2024-05-09T19:47:53.346Z,71.50
2024-05-09T19:50:26.896Z,71.79
2024-05-09T19:53:02.309Z,71.81
2024-05-09T19:55:28.870Z,72.15
2024-05-09T19:57:59.887Z,72.65
2024-05-09T20:00:32.903Z,73.13
2024-05-09T20:03:02.787Z,72.37
2024-05-09T20:05:30.974Z,71.64
2024-05-09T20:07:57.873Z,72.94
2024-05-09T20:10:29.840Z,73.04
2024-05-09T20:12:59.345Z,73.14
2024-05-09T20:15:25.919Z,72.98
2024-05-09T20:17:52.534Z,73.29
2024-05-09T20:20:28.352Z,73.22
2024-05-09T20:23:02.874Z,73.65
2024-05-09T20:25:29.518Z,73.79
2024-05-09T20:27:56.139Z,74.07
2024-05-09T20:30:29.005Z,74.44
2024-05-09T20:32:59.699Z,74.19
2024-05-09T20:35:26.639Z,74.07
2024-05-09T20:37:53.227Z,74.28
2024-05-09T20:40:28.260Z,74.55
2024-05-09T20:42:59.205Z,74.78
2024-05-09T20:45:25.936Z,74.89
2024-05-09T20:47:52.687Z,75.27
2024-05-09T20:50:28.128Z,75.30
2024-05-09T20:53:02.800Z,75.46
2024-05-09T20:55:29.839Z,75.45
2024-05-09T20:57:56.840Z,75.23
2024-05-09T21:00:30.097Z,75.47
2024-05-09T21:03:05.140Z,75.46
2024-05-09T21:05:32.199Z,75.46
2024-05-09T21:07:58.959Z,75.77
2024-05-09T21:10:27.259Z,75.93
2024-05-09T21:12:56.373Z,76.13
2024-05-09T21:15:23.428Z,76.05
2024-05-09T21:17:50.238Z,75.89
2024-05-09T21:20:20.664Z,76.58
2024-05-09T21:22:50.855Z,76.51
2024-05-09T21:25:17.466Z,76.98
2024-05-09T21:27:44.147Z,76.70
2024-05-09T21:30:18.404Z,77.24
2024-05-09T21:32:50.220Z,77.07
2024-05-09T21:35:19.743Z,77.28
2024-05-09T21:37:46.299Z,77.42
2024-05-09T21:40:17.031Z,77.39
2024-05-09T21:42:50.725Z,77.44
2024-05-09T21:45:17.246Z,77.55
2024-05-09T21:47:43.954Z,77.85
2024-05-09T21:50:18.661Z,77.81
2024-05-09T21:52:49.814Z,78.00
2024-05-09T21:55:16.478Z,78.02
2024-05-09T21:57:43.124Z,78.36
2024-05-09T22:00:24.855Z,78.53
2024-05-09T22:02:59.009Z,78.25
2024-05-09T22:05:25.562Z,78.66
2024-05-09T22:07:52.137Z,78.83
2024-05-09T22:10:25.697Z,78.74
2024-05-09T22:12:56.675Z,78.54
2024-05-09T22:15:23.197Z,78.82
2024-05-09T22:17:49.862Z,79.29
2024-05-09T22:20:22.287Z,79.21
2024-05-09T22:22:55.457Z,79.17
2024-05-09T22:25:26.610Z,79.29
2024-05-09T22:27:54.503Z,78.96
2024-05-09T22:30:24.219Z,79.45
2024-05-09T22:32:58.429Z,79.78
2024-05-09T22:35:25.063Z,79.55
2024-05-09T22:37:51.665Z,79.66
2024-05-09T22:40:28.262Z,79.36
2024-05-09T22:43:04.644Z,79.69
2024-05-09T22:45:31.244Z,79.81
2024-05-09T22:47:57.997Z,79.95
2024-05-09T22:50:27.022Z,79.85
2024-05-09T22:52:58.844Z,79.77
2024-05-09T22:55:25.400Z,79.74
2024-05-09T22:57:51.973Z,80.08
2024-05-09T23:00:21.797Z,80.40
2024-05-09T23:02:52.865Z,80.25
2024-05-09T23:05:19.636Z,80.37
2024-05-09T23:07:46.256Z,80.36
2024-05-09T23:10:17.372Z,80.55
2024-05-09T23:12:51.336Z,80.51
2024-05-09T23:15:17.878Z,80.41
2024-05-09T23:17:44.684Z,80.51
2024-05-09T23:20:11.865Z,80.46
2024-05-09T23:22:40.970Z,80.56
2024-05-09T23:25:07.594Z,80.60
2024-05-09T23:27:34.296Z,80.51
2024-05-09T23:30:00.834Z,80.50
2024-05-09T23:32:27.608Z,80.57
2024-05-09T23:34:54.307Z,80.45
2024-05-09T23:37:20.937Z,80.79
2024-05-09T23:39:47.605Z,80.94
2024-05-09T23:42:14.189Z,80.85
2024-05-09T23:44:40.739Z,80.66
2024-05-09T23:47:10.173Z,81.04
2024-05-09T23:49:37.362Z,81.06
2024-05-09T23:52:04.351Z,81.27
2024-05-09T23:54:30.864Z,80.46
2024-05-09T23:56:57.352Z,80.85
2024-05-09T23:59:26.601Z,81.26
